sensor_id;sensor_type;location;lat;lon;timestamp;pressure;altitude;pressure_sealevel;temperature
45034;BMP280;30771;47.988;-4.186;2023-02-18T07:02:52;99989.03;;;10.53
45034;BMP280;30771;47.988;-4.186;2023-02-18T07:05:17;99977.94;;;10.51
45034;BMP280;30771;47.988;-4.186;2023-02-18T07:07:42;99981.94;;;10.53
45034;BMP280;30771;47.988;-4.186;2023-02-18T07:10:08;99981.59;;;10.50
45034;BMP280;30771;47.988;-4.186;2023-02-18T07:12:33;99985.22;;;10.49
45034;BMP280;30771;47.988;-4.186;2023-02-18T07:14:58;99987.44;;;10.52
45034;BMP280;30771;47.988;-4.186;2023-02-18T07:17:24;99989.84;;;10.53
45034;BMP280;30771;47.988;-4.186;2023-02-18T07:19:49;99992.53;;;10.47
45034;BMP280;30771;47.988;-4.186;2023-02-18T07:22:14;100009.09;;;10.54
45034;BMP280;30771;47.988;-4.186;2023-02-18T07:24:40;99996.16;;;10.52
45034;BMP280;30771;47.988;-4.186;2023-02-18T07:27:05;99997.56;;;10.55
45034;BMP280;30771;47.988;-4.186;2023-02-18T07:29:30;100004.66;;;10.54
45034;BMP280;30771;47.988;-4.186;2023-02-18T07:31:56;100007.69;;;10.51
45034;BMP280;30771;47.988;-4.186;2023-02-18T07:34:21;100004.66;;;10.54
45034;BMP280;30771;47.988;-4.186;2023-02-18T07:36:46;100002.81;;;10.55
45034;BMP280;30771;47.988;-4.186;2023-02-18T07:39:12;100007.47;;;10.53
45034;BMP280;30771;47.988;-4.186;2023-02-18T07:41:37;100000.59;;;10.52
45034;BMP280;30771;47.988;-4.186;2023-02-18T07:44:03;99998.63;;;10.47
45034;BMP280;30771;47.988;-4.186;2023-02-18T07:46:28;100020.81;;;10.58
45034;BMP280;30771;47.988;-4.186;2023-02-18T07:48:55;100014.56;;;10.52
45034;BMP280;30771;47.988;-4.186;2023-02-18T07:51:21;100019.81;;;10.59
45034;BMP280;30771;47.988;-4.186;2023-02-18T07:53:46;100004.84;;;10.59
45034;BMP280;30771;47.988;-4.186;2023-02-18T07:56:12;100016.34;;;10.65
45034;BMP280;30771;47.988;-4.186;2023-02-18T07:58:38;100008.47;;;10.65
45034;BMP280;30771;47.988;-4.186;2023-02-18T08:01:09;100013.25;;;10.68
45034;BMP280;30771;47.988;-4.186;2023-02-18T08:03:35;100020.97;;;10.69
45034;BMP280;30771;47.988;-4.186;2023-02-18T08:06:01;100013.66;;;10.71
45034;BMP280;30771;47.988;-4.186;2023-02-18T08:08:29;100024.41;;;10.70
45034;BMP280;30771;47.988;-4.186;2023-02-18T08:10:57;100016.47;;;10.76
45034;BMP280;30771;47.988;-4.186;2023-02-18T08:13:23;100019.47;;;10.80
45034;BMP280;30771;47.988;-4.186;2023-02-18T08:15:48;100031.44;;;10.82
45034;BMP280;30771;47.988;-4.186;2023-02-18T08:18:20;100030.41;;;10.83
45034;BMP280;30771;47.988;-4.186;2023-02-18T08:20:46;100040.72;;;10.85
45034;BMP280;30771;47.988;-4.186;2023-02-18T08:23:13;100029.00;;;10.81
45034;BMP280;30771;47.988;-4.186;2023-02-18T08:25:39;100042.50;;;10.91
45034;BMP280;30771;47.988;-4.186;2023-02-18T08:28:04;100033.00;;;10.90
45034;BMP280;30771;47.988;-4.186;2023-02-18T08:30:30;100034.88;;;10.89
45034;BMP280;30771;47.988;-4.186;2023-02-18T08:32:56;100051.78;;;11.00
45034;BMP280;30771;47.988;-4.186;2023-02-18T08:35:21;100055.00;;;11.02
45034;BMP280;30771;47.988;-4.186;2023-02-18T08:37:47;100046.16;;;10.96
45034;BMP280;30771;47.988;-4.186;2023-02-18T08:40:12;100062.50;;;11.05
45034;BMP280;30771;47.988;-4.186;2023-02-18T08:42:38;100065.53;;;11.08
45034;BMP280;30771;47.988;-4.186;2023-02-18T08:45:04;100061.84;;;11.09
45034;BMP280;30771;47.988;-4.186;2023-02-18T08:47:30;100054.34;;;11.13
45034;BMP280;30771;47.988;-4.186;2023-02-18T08:49:55;100067.88;;;11.16
45034;BMP280;30771;47.988;-4.186;2023-02-18T08:52:21;100075.97;;;11.22
45034;BMP280;30771;47.988;-4.186;2023-02-18T08:54:46;100080.22;;;11.23
45034;BMP280;30771;47.988;-4.186;2023-02-18T08:57:12;100091.16;;;11.26
45034;BMP280;30771;47.988;-4.186;2023-02-18T08:59:37;100082.44;;;11.26
45034;BMP280;30771;47.988;-4.186;2023-02-18T09:02:03;100089.69;;;11.30
45034;BMP280;30771;47.988;-4.186;2023-02-18T09:04:28;100084.41;;;11.30
45034;BMP280;30771;47.988;-4.186;2023-02-18T09:06:53;100095.34;;;11.34
45034;BMP280;30771;47.988;-4.186;2023-02-18T09:09:19;100111.94;;;11.41
45034;BMP280;30771;47.988;-4.186;2023-02-18T09:11:45;100117.16;;;11.47
45034;BMP280;30771;47.988;-4.186;2023-02-18T09:14:10;100132.09;;;11.53
45034;BMP280;30771;47.988;-4.186;2023-02-18T09:16:36;100132.91;;;11.54
45034;BMP280;30771;47.988;-4.186;2023-02-18T09:19:01;100145.47;;;11.58
45034;BMP280;30771;47.988;-4.186;2023-02-18T09:21:26;100141.03;;;11.59
45034;BMP280;30771;47.988;-4.186;2023-02-18T09:23:52;100160.81;;;11.68
45034;BMP280;30771;47.988;-4.186;2023-02-18T09:26:18;100174.16;;;11.73
45034;BMP280;30771;47.988;-4.186;2023-02-18T09:28:44;100161.44;;;11.70
45034;BMP280;30771;47.988;-4.186;2023-02-18T09:31:14;100187.09;;;11.87
45034;BMP280;30771;47.988;-4.186;2023-02-18T09:33:42;100201.63;;;11.90
45034;BMP280;30771;47.988;-4.186;2023-02-18T09:36:08;100213.59;;;11.92
45034;BMP280;30771;47.988;-4.186;2023-02-18T09:38:33;100234.09;;;11.90
45034;BMP280;30771;47.988;-4.186;2023-02-18T09:41:00;100243.59;;;11.98
45034;BMP280;30771;47.988;-4.186;2023-02-18T09:43:30;100251.66;;;12.03
45034;BMP280;30771;47.988;-4.186;2023-02-18T09:45:58;100255.53;;;12.07
45034;BMP280;30771;47.988;-4.186;2023-02-18T09:48:35;100266.88;;;12.07
45034;BMP280;30771;47.988;-4.186;2023-02-18T09:51:01;100284.91;;;12.10
45034;BMP280;30771;47.988;-4.186;2023-02-18T09:53:26;100302.09;;;12.19
45034;BMP280;30771;47.988;-4.186;2023-02-18T09:55:55;100302.81;;;12.08
45034;BMP280;30771;47.988;-4.186;2023-02-18T09:58:30;100320.94;;;12.23
45034;BMP280;30771;47.988;-4.186;2023-02-18T10:01:06;100339.84;;;12.27
45034;BMP280;30771;47.988;-4.186;2023-02-18T10:03:34;100358.09;;;12.28
45034;BMP280;30771;47.988;-4.186;2023-02-18T10:08:37;100389.34;;;12.31
45034;BMP280;30771;47.988;-4.186;2023-02-18T10:11:09;100402.53;;;12.31
45034;BMP280;30771;47.988;-4.186;2023-02-18T10:13:37;100396.22;;;12.32
45034;BMP280;30771;47.988;-4.186;2023-02-18T10:16:02;100425.59;;;12.49
45034;BMP280;30771;47.988;-4.186;2023-02-18T10:18:41;100406.25;;;12.55
45034;BMP280;30771;47.988;-4.186;2023-02-18T10:21:11;100425.34;;;12.57
45034;BMP280;30771;47.988;-4.186;2023-02-18T10:23:40;100455.53;;;12.67
45034;BMP280;30771;47.988;-4.186;2023-02-18T10:26:12;100451.25;;;12.66
45034;BMP280;30771;47.988;-4.186;2023-02-18T10:28:38;100441.16;;;12.63
45034;BMP280;30771;47.988;-4.186;2023-02-18T10:31:07;100486.50;;;12.85
45034;BMP280;30771;47.988;-4.186;2023-02-18T10:33:35;100498.56;;;12.74
45034;BMP280;30771;47.988;-4.186;2023-02-18T10:41:52;100578.09;;;12.97
45034;BMP280;30771;47.988;-4.186;2023-02-18T10:52:17;100706.97;;;13.08
45034;BMP280;30771;47.988;-4.186;2023-02-18T10:57:20;100749.84;;;13.10
45034;BMP280;30771;47.988;-4.186;2023-02-18T11:02:34;100790.22;;;12.86
45034;BMP280;30771;47.988;-4.186;2023-02-18T11:05:11;100809.50;;;12.93
45034;BMP280;30771;47.988;-4.186;2023-02-18T11:07:40;100835.75;;;12.88
45034;BMP280;30771;47.988;-4.186;2023-02-18T11:10:15;100839.22;;;12.89
45034;BMP280;30771;47.988;-4.186;2023-02-18T11:12:48;100853.63;;;12.93
45034;BMP280;30771;47.988;-4.186;2023-02-18T11:17:43;100877.59;;;13.04
45034;BMP280;30771;47.988;-4.186;2023-02-18T11:22:47;100886.53;;;13.10
45034;BMP280;30771;47.988;-4.186;2023-02-18T11:25:19;100885.13;;;13.14
45034;BMP280;30771;47.988;-4.186;2023-02-18T11:27:50;100903.19;;;13.10
45034;BMP280;30771;47.988;-4.186;2023-02-18T11:30:23;100899.16;;;13.14
45034;BMP280;30771;47.988;-4.186;2023-02-18T11:32:49;100914.22;;;13.14
45034;BMP280;30771;47.988;-4.186;2023-02-18T11:35:19;100931.31;;;13.05
45034;BMP280;30771;47.988;-4.186;2023-02-18T11:37:45;100921.75;;;12.97
45034;BMP280;30771;47.988;-4.186;2023-02-18T11:40:24;100914.63;;;12.91
45034;BMP280;30771;47.988;-4.186;2023-02-18T11:42:49;100896.13;;;12.91
45034;BMP280;30771;47.988;-4.186;2023-02-18T11:45:28;100880.47;;;12.96
45034;BMP280;30771;47.988;-4.186;2023-02-18T11:48:00;100889.00;;;13.05
45034;BMP280;30771;47.988;-4.186;2023-02-18T11:50:25;100893.69;;;13.09
45034;BMP280;30771;47.988;-4.186;2023-02-18T11:52:54;100935.56;;;13.06
45034;BMP280;30771;47.988;-4.186;2023-02-18T11:55:23;100941.88;;;13.05
45034;BMP280;30771;47.988;-4.186;2023-02-18T11:57:56;100952.25;;;13.00
45034;BMP280;30771;47.988;-4.186;2023-02-18T12:00:24;100967.94;;;12.95
45034;BMP280;30771;47.988;-4.186;2023-02-18T12:02:54;100988.63;;;12.91
45034;BMP280;30771;47.988;-4.186;2023-02-18T12:05:22;100997.19;;;12.93
45034;BMP280;30771;47.988;-4.186;2023-02-18T12:07:49;101020.81;;;12.95
45034;BMP280;30771;47.988;-4.186;2023-02-18T12:10:33;101013.47;;;12.97
45034;BMP280;30771;47.988;-4.186;2023-02-18T12:13:05;101003.69;;;13.04
45034;BMP280;30771;47.988;-4.186;2023-02-18T12:15:42;101001.03;;;13.10
45034;BMP280;30771;47.988;-4.186;2023-02-18T12:25:57;101037.25;;;13.29
45034;BMP280;30771;47.988;-4.186;2023-02-18T12:43:54;101157.31;;;13.29
45034;BMP280;30771;47.988;-4.186;2023-02-18T13:01:34;101183.16;;;13.33
45034;BMP280;30771;47.988;-4.186;2023-02-18T13:09:13;101196.19;;;13.35
45034;BMP280;30771;47.988;-4.186;2023-02-18T13:14:15;101221.38;;;13.24
45034;BMP280;30771;47.988;-4.186;2023-02-18T13:16:43;101211.41;;;13.19
45034;BMP280;30771;47.988;-4.186;2023-02-18T13:21:53;101180.25;;;13.15
45034;BMP280;30771;47.988;-4.186;2023-02-18T13:24:32;101162.16;;;13.18
45034;BMP280;30771;47.988;-4.186;2023-02-18T13:27:04;101152.41;;;13.19
45034;BMP280;30771;47.988;-4.186;2023-02-18T13:29:38;101147.72;;;13.08
45034;BMP280;30771;47.988;-4.186;2023-02-18T13:32:08;101139.78;;;13.01
45034;BMP280;30771;47.988;-4.186;2023-02-18T13:37:15;101103.97;;;13.05
45034;BMP280;30771;47.988;-4.186;2023-02-18T13:39:49;101101.13;;;13.13
45034;BMP280;30771;47.988;-4.186;2023-02-18T13:47:40;101109.03;;;12.94
45034;BMP280;30771;47.988;-4.186;2023-02-18T13:52:49;101120.81;;;12.85
45034;BMP280;30771;47.988;-4.186;2023-02-18T13:55:23;101105.78;;;12.85
45034;BMP280;30771;47.988;-4.186;2023-02-18T13:57:51;101106.56;;;12.86
45034;BMP280;30771;47.988;-4.186;2023-02-18T14:00:33;101105.34;;;12.88
45034;BMP280;30771;47.988;-4.186;2023-02-18T14:03:00;101098.84;;;12.91
45034;BMP280;30771;47.988;-4.186;2023-02-18T14:05:37;101103.13;;;12.92
45034;BMP280;30771;47.988;-4.186;2023-02-18T14:13:40;101086.69;;;12.90
45034;BMP280;30771;47.988;-4.186;2023-02-18T14:16:06;101070.59;;;12.98
45034;BMP280;30771;47.988;-4.186;2023-02-18T14:18:32;101067.97;;;13.04
45034;BMP280;30771;47.988;-4.186;2023-02-18T14:33:41;101035.41;;;12.97
45034;BMP280;30771;47.988;-4.186;2023-02-18T14:46:14;100990.28;;;12.92
45034;BMP280;30771;47.988;-4.186;2023-02-18T14:49:04;100970.38;;;12.96
45034;BMP280;30771;47.988;-4.186;2023-02-18T14:51:32;100969.56;;;13.02
45034;BMP280;30771;47.988;-4.186;2023-02-18T14:54:03;100960.97;;;13.00
45034;BMP280;30771;47.988;-4.186;2023-02-18T14:56:28;100944.13;;;13.01
45034;BMP280;30771;47.988;-4.186;2023-02-18T14:58:57;100925.00;;;12.99
45034;BMP280;30771;47.988;-4.186;2023-02-18T15:01:26;100896.31;;;13.03
45034;BMP280;30771;47.988;-4.186;2023-02-18T15:03:53;100883.94;;;13.03
45034;BMP280;30771;47.988;-4.186;2023-02-18T15:08:47;100824.78;;;12.85
45034;BMP280;30771;47.988;-4.186;2023-02-18T15:11:12;100769.66;;;12.88
45034;BMP280;30771;47.988;-4.186;2023-02-18T15:13:40;100740.97;;;12.98
45034;BMP280;30771;47.988;-4.186;2023-02-18T15:16:08;100712.09;;;13.03
45034;BMP280;30771;47.988;-4.186;2023-02-18T15:18:39;100690.88;;;13.10
45034;BMP280;30771;47.988;-4.186;2023-02-18T15:21:05;100693.16;;;13.06
45034;BMP280;30771;47.988;-4.186;2023-02-18T15:23:32;100672.22;;;13.05
45034;BMP280;30771;47.988;-4.186;2023-02-18T15:25:59;100648.00;;;13.08
45034;BMP280;30771;47.988;-4.186;2023-02-18T15:28:26;100643.69;;;13.13
45034;BMP280;30771;47.988;-4.186;2023-02-18T15:30:51;100648.56;;;13.10
45034;BMP280;30771;47.988;-4.186;2023-02-18T15:33:18;100650.06;;;12.99
45034;BMP280;30771;47.988;-4.186;2023-02-18T15:35:43;100656.84;;;12.89
45034;BMP280;30771;47.988;-4.186;2023-02-18T15:38:13;100640.22;;;12.82
45034;BMP280;30771;47.988;-4.186;2023-02-18T15:40:39;100644.50;;;12.76
45034;BMP280;30771;47.988;-4.186;2023-02-18T15:43:04;100630.06;;;12.72
45034;BMP280;30771;47.988;-4.186;2023-02-18T15:45:31;100619.69;;;12.71
45034;BMP280;30771;47.988;-4.186;2023-02-18T15:47:58;100623.16;;;12.71
45034;BMP280;30771;47.988;-4.186;2023-02-18T15:50:25;100621.97;;;12.67
45034;BMP280;30771;47.988;-4.186;2023-02-18T15:52:51;100611.03;;;12.64
45034;BMP280;30771;47.988;-4.186;2023-02-18T15:55:30;100609.59;;;12.61
45034;BMP280;30771;47.988;-4.186;2023-02-18T15:57:58;100608.22;;;12.52
45034;BMP280;30771;47.988;-4.186;2023-02-18T16:02:57;100590.63;;;12.33
45034;BMP280;30771;47.988;-4.186;2023-02-18T16:05:26;100564.22;;;12.33
45034;BMP280;30771;47.988;-4.186;2023-02-18T16:07:55;100555.09;;;12.29
45034;BMP280;30771;47.988;-4.186;2023-02-18T16:10:23;100536.22;;;12.26
45034;BMP280;30771;47.988;-4.186;2023-02-18T16:12:49;100538.66;;;12.21
45034;BMP280;30771;47.988;-4.186;2023-02-18T16:15:17;100529.13;;;12.19
45034;BMP280;30771;47.988;-4.186;2023-02-18T16:17:45;100520.22;;;12.14
45034;BMP280;30771;47.988;-4.186;2023-02-18T16:20:16;100509.03;;;12.12
45034;BMP280;30771;47.988;-4.186;2023-02-18T16:22:43;100504.41;;;12.07
45034;BMP280;30771;47.988;-4.186;2023-02-18T16:27:37;100495.28;;;12.03
45034;BMP280;30771;47.988;-4.186;2023-02-18T16:30:17;100487.34;;;12.03
45034;BMP280;30771;47.988;-4.186;2023-02-18T16:32:42;100477.78;;;12.02
45034;BMP280;30771;47.988;-4.186;2023-02-18T16:35:08;100466.47;;;12.02
45034;BMP280;30771;47.988;-4.186;2023-02-18T16:37:33;100454.91;;;11.96
45034;BMP280;30771;47.988;-4.186;2023-02-18T16:39:58;100440.50;;;11.92
45034;BMP280;30771;47.988;-4.186;2023-02-18T16:42:23;100431.97;;;11.90
45034;BMP280;30771;47.988;-4.186;2023-02-18T16:44:48;100416.41;;;11.82
45034;BMP280;30771;47.988;-4.186;2023-02-18T16:47:15;100398.97;;;11.75
45034;BMP280;30771;47.988;-4.186;2023-02-18T16:49:40;100389.03;;;11.70
45034;BMP280;30771;47.988;-4.186;2023-02-18T16:52:07;100380.75;;;11.67
45034;BMP280;30771;47.988;-4.186;2023-02-18T16:54:32;100368.38;;;11.61
45034;BMP280;30771;47.988;-4.186;2023-02-18T16:56:58;100363.75;;;11.56
45034;BMP280;30771;47.988;-4.186;2023-02-18T16:59:23;100357.88;;;11.54
45034;BMP280;30771;47.988;-4.186;2023-02-18T17:01:48;100344.47;;;11.56
45034;BMP280;30771;47.988;-4.186;2023-02-18T17:04:14;100341.81;;;11.56
45034;BMP280;30771;47.988;-4.186;2023-02-18T17:06:39;100339.41;;;11.54
45034;BMP280;30771;47.988;-4.186;2023-02-18T17:09:14;100339.81;;;11.51
45034;BMP280;30771;47.988;-4.186;2023-02-18T17:11:40;100330.31;;;11.50
45034;BMP280;30771;47.988;-4.186;2023-02-18T17:14:05;100328.91;;;11.48
45034;BMP280;30771;47.988;-4.186;2023-02-18T17:16:30;100318.53;;;11.46
45034;BMP280;30771;47.988;-4.186;2023-02-18T17:18:55;100306.16;;;11.47
45034;BMP280;30771;47.988;-4.186;2023-02-18T17:21:21;100331.53;;;11.41
45034;BMP280;30771;47.988;-4.186;2023-02-18T17:23:47;100325.31;;;11.36
45034;BMP280;30771;47.988;-4.186;2023-02-18T17:26:20;100308.25;;;11.32
45034;BMP280;30771;47.988;-4.186;2023-02-18T17:28:45;100307.06;;;11.28
45034;BMP280;30771;47.988;-4.186;2023-02-18T17:31:12;100300.59;;;11.24
45034;BMP280;30771;47.988;-4.186;2023-02-18T17:33:38;100296.91;;;11.25
45034;BMP280;30771;47.988;-4.186;2023-02-18T17:36:03;100294.28;;;11.25
45034;BMP280;30771;47.988;-4.186;2023-02-18T17:38:28;100281.94;;;11.25
45034;BMP280;30771;47.988;-4.186;2023-02-18T17:40:53;100280.72;;;11.28
45034;BMP280;30771;47.988;-4.186;2023-02-18T17:43:19;100280.72;;;11.28
45034;BMP280;30771;47.988;-4.186;2023-02-18T17:45:45;100286.59;;;11.23
45034;BMP280;30771;47.988;-4.186;2023-02-18T17:48:12;100292.09;;;11.22
45034;BMP280;30771;47.988;-4.186;2023-02-18T17:50:37;100280.50;;;11.23
45034;BMP280;30771;47.988;-4.186;2023-02-18T17:53:02;100276.25;;;11.22
45034;BMP280;30771;47.988;-4.186;2023-02-18T17:55:30;100278.13;;;11.21
45034;BMP280;30771;47.988;-4.186;2023-02-18T17:57:56;100267.97;;;11.18
45034;BMP280;30771;47.988;-4.186;2023-02-18T18:00:25;100254.19;;;11.16
45034;BMP280;30771;47.988;-4.186;2023-02-18T18:04:13;100221.75;;;11.15
45034;BMP280;30771;47.988;-4.186;2023-02-18T18:06:38;100223.56;;;11.15
45034;BMP280;30771;47.988;-4.186;2023-02-18T18:09:04;100221.75;;;11.15
45034;BMP280;30771;47.988;-4.186;2023-02-18T18:11:29;100213.47;;;11.12
45034;BMP280;30771;47.988;-4.186;2023-02-18T18:13:54;100219.34;;;11.14
45034;BMP280;30771;47.988;-4.186;2023-02-18T18:16:19;100212.47;;;11.13
45034;BMP280;30771;47.988;-4.186;2023-02-18T18:18:45;100214.66;;;11.09
45034;BMP280;30771;47.988;-4.186;2023-02-18T18:21:16;100205.34;;;11.07
45034;BMP280;30771;47.988;-4.186;2023-02-18T18:23:42;100199.28;;;11.06
45034;BMP280;30771;47.988;-4.186;2023-02-18T18:26:07;100178.81;;;11.08
45034;BMP280;30771;47.988;-4.186;2023-02-18T18:28:33;100181.44;;;11.08
45034;BMP280;30771;47.988;-4.186;2023-02-18T18:30:58;100174.38;;;11.09
45034;BMP280;30771;47.988;-4.186;2023-02-18T18:33:24;100166.47;;;11.09
45034;BMP280;30771;47.988;-4.186;2023-02-18T18:35:51;100169.09;;;11.09
45034;BMP280;30771;47.988;-4.186;2023-02-18T18:38:16;100171.09;;;11.07
45034;BMP280;30771;47.988;-4.186;2023-02-18T18:40:42;100160.81;;;11.05
45034;BMP280;30771;47.988;-4.186;2023-02-18T18:43:14;100150.25;;;11.05
45034;BMP280;30771;47.988;-4.186;2023-02-18T18:45:40;100140.53;;;11.06
45034;BMP280;30771;47.988;-4.186;2023-02-18T18:48:06;100137.09;;;11.05
45034;BMP280;30771;47.988;-4.186;2023-02-18T18:50:31;100130.19;;;11.04
45034;BMP280;30771;47.988;-4.186;2023-02-18T18:52:56;100129.41;;;11.04
45034;BMP280;30771;47.988;-4.186;2023-02-18T18:55:24;100128.59;;;11.03
45034;BMP280;30771;47.988;-4.186;2023-02-18T18:57:51;100124.91;;;11.04
45034;BMP280;30771;47.988;-4.186;2023-02-18T19:00:17;100125.94;;;11.03
45034;BMP280;30771;47.988;-4.186;2023-02-18T19:02:43;100118.88;;;11.04
45034;BMP280;30771;47.988;-4.186;2023-02-18T19:05:30;100114.00;;;11.01
45034;BMP280;30771;47.988;-4.186;2023-02-18T19:07:55;100106.09;;;11.01
45034;BMP280;30771;47.988;-4.186;2023-02-18T19:10:20;100105.28;;;11.00
45034;BMP280;30771;47.988;-4.186;2023-02-18T19:12:46;100101.00;;;10.99
45034;BMP280;30771;47.988;-4.186;2023-02-18T19:15:16;100089.69;;;10.99
45034;BMP280;30771;47.988;-4.186;2023-02-18T19:17:49;100089.91;;;10.97
45034;BMP280;30771;47.988;-4.186;2023-02-18T19:20:16;100087.50;;;10.96
45034;BMP280;30771;47.988;-4.186;2023-02-18T19:22:41;100086.66;;;10.95
45034;BMP280;30771;47.988;-4.186;2023-02-18T19:25:07;100084.25;;;10.94
45034;BMP280;30771;47.988;-4.186;2023-02-18T19:27:35;100077.13;;;10.94
45034;BMP280;30771;47.988;-4.186;2023-02-18T19:30:00;100080.59;;;10.95
45034;BMP280;30771;47.988;-4.186;2023-02-18T19:32:25;100079.59;;;10.96
45034;BMP280;30771;47.988;-4.186;2023-02-18T19:34:50;100082.81;;;10.98
45034;BMP280;30771;47.988;-4.186;2023-02-18T19:37:15;100077.56;;;10.98
45034;BMP280;30771;47.988;-4.186;2023-02-18T19:39:41;100073.09;;;10.98
45034;BMP280;30771;47.988;-4.186;2023-02-18T19:42:06;100075.72;;;10.98
45034;BMP280;30771;47.988;-4.186;2023-02-18T19:44:32;100081.78;;;10.99
45034;BMP280;30771;47.988;-4.186;2023-02-18T19:46:57;100069.66;;;10.98
45034;BMP280;30771;47.988;-4.186;2023-02-18T19:49:24;100076.72;;;10.97
45034;BMP280;30771;47.988;-4.186;2023-02-18T19:51:49;100062.56;;;10.98
45034;BMP280;30771;47.988;-4.186;2023-02-18T19:54:15;100057.84;;;11.00
45034;BMP280;30771;47.988;-4.186;2023-02-18T19:56:40;100053.59;;;10.99
45034;BMP280;30771;47.988;-4.186;2023-02-18T19:59:05;100052.81;;;10.99
45034;BMP280;30771;47.988;-4.186;2023-02-18T20:01:30;100049.56;;;10.97
45034;BMP280;30771;47.988;-4.186;2023-02-18T20:03:55;100047.53;;;10.99
45034;BMP280;30771;47.988;-4.186;2023-02-18T20:06:20;100042.06;;;11.00
45034;BMP280;30771;47.988;-4.186;2023-02-18T20:08:46;100038.59;;;11.00
45034;BMP280;30771;47.988;-4.186;2023-02-18T20:11:11;100034.16;;;11.00
45034;BMP280;30771;47.988;-4.186;2023-02-18T20:13:36;100043.06;;;10.99
45034;BMP280;30771;47.988;-4.186;2023-02-18T20:16:04;100032.53;;;10.99
45034;BMP280;30771;47.988;-4.186;2023-02-18T20:18:29;100030.50;;;11.01
45034;BMP280;30771;47.988;-4.186;2023-02-18T20:20:55;100037.59;;;11.01
45034;BMP280;30771;47.988;-4.186;2023-02-18T20:23:20;100031.50;;;11.00
45034;BMP280;30771;47.988;-4.186;2023-02-18T20:25:46;100030.28;;;11.03
45034;BMP280;30771;47.988;-4.186;2023-02-18T20:28:11;100028.25;;;11.05
45034;BMP280;30771;47.988;-4.186;2023-02-18T20:30:36;100027.25;;;11.06
45034;BMP280;30771;47.988;-4.186;2023-02-18T20:33:01;100020.34;;;11.05
45034;BMP280;30771;47.988;-4.186;2023-02-18T20:35:26;100009.00;;;11.04
45034;BMP280;30771;47.988;-4.186;2023-02-18T20:37:51;100012.44;;;11.05
45034;BMP280;30771;47.988;-4.186;2023-02-18T20:40:17;100006.38;;;11.04
45034;BMP280;30771;47.988;-4.186;2023-02-18T20:42:42;100007.19;;;11.05
45034;BMP280;30771;47.988;-4.186;2023-02-18T20:45:07;100004.53;;;11.05
45034;BMP280;30771;47.988;-4.186;2023-02-18T20:47:33;100000.09;;;11.05
45034;BMP280;30771;47.988;-4.186;2023-02-18T20:49:58;99992.19;;;11.05
45034;BMP280;30771;47.988;-4.186;2023-02-18T20:52:23;99990.13;;;11.07
45034;BMP280;30771;47.988;-4.186;2023-02-18T20:54:48;99984.84;;;11.07
45034;BMP280;30771;47.988;-4.186;2023-02-18T20:57:14;99983.63;;;11.10
45034;BMP280;30771;47.988;-4.186;2023-02-18T20:59:39;99984.66;;;11.09
45034;BMP280;30771;47.988;-4.186;2023-02-18T21:02:04;99981.59;;;11.12
45034;BMP280;30771;47.988;-4.186;2023-02-18T21:04:29;99979.78;;;11.12
45034;BMP280;30771;47.988;-4.186;2023-02-18T21:06:54;99978.75;;;11.13
45034;BMP280;30771;47.988;-4.186;2023-02-18T21:09:19;99977.13;;;11.12
45034;BMP280;30771;47.988;-4.186;2023-02-18T21:11:45;99974.50;;;11.12
45034;BMP280;30771;47.988;-4.186;2023-02-18T21:14:10;99975.31;;;11.13
45034;BMP280;30771;47.988;-4.186;2023-02-18T21:16:35;99970.84;;;11.13
45034;BMP280;30771;47.988;-4.186;2023-02-18T21:19:00;99970.59;;;11.15
45034;BMP280;30771;47.988;-4.186;2023-02-18T21:21:25;99984.59;;;11.15
45034;BMP280;30771;47.988;-4.186;2023-02-18T21:23:51;99982.78;;;11.16
45034;BMP280;30771;47.988;-4.186;2023-02-18T21:26:17;99969.59;;;11.16
45034;BMP280;30771;47.988;-4.186;2023-02-18T21:28:47;99972.25;;;11.16
45034;BMP280;30771;47.988;-4.186;2023-02-18T21:31:17;99968.56;;;11.17
45034;BMP280;30771;47.988;-4.186;2023-02-18T21:33:42;99971.00;;;11.19
45034;BMP280;30771;47.988;-4.186;2023-02-18T21:36:07;99964.94;;;11.18
45034;BMP280;30771;47.988;-4.186;2023-02-18T21:38:32;99963.09;;;11.19
45034;BMP280;30771;47.988;-4.186;2023-02-18T21:40:58;99954.97;;;11.20
45034;BMP280;30771;47.988;-4.186;2023-02-18T21:43:23;99954.97;;;11.20
45034;BMP280;30771;47.988;-4.186;2023-02-18T21:45:48;99952.34;;;11.20
45034;BMP280;30771;47.988;-4.186;2023-02-18T21:48:13;99953.16;;;11.21
45034;BMP280;30771;47.988;-4.186;2023-02-18T21:50:38;99954.75;;;11.22
45034;BMP280;30771;47.988;-4.186;2023-02-18T21:53:03;99942.38;;;11.22
45034;BMP280;30771;47.988;-4.186;2023-02-18T21:55:29;99944.00;;;11.23
45034;BMP280;30771;47.988;-4.186;2023-02-18T21:57:54;99942.97;;;11.24
45034;BMP280;30771;47.988;-4.186;2023-02-18T22:00:19;99941.13;;;11.25
45034;BMP280;30771;47.988;-4.186;2023-02-18T22:02:44;99937.50;;;11.26
45034;BMP280;30771;47.988;-4.186;2023-02-18T22:05:09;99934.84;;;11.26
45034;BMP280;30771;47.988;-4.186;2023-02-18T22:07:34;99934.03;;;11.25
45034;BMP280;30771;47.988;-4.186;2023-02-18T22:10:00;99924.31;;;11.26
45034;BMP280;30771;47.988;-4.186;2023-02-18T22:12:25;99931.41;;;11.25
45034;BMP280;30771;47.988;-4.186;2023-02-18T22:14:50;99925.91;;;11.27
45034;BMP280;30771;47.988;-4.186;2023-02-18T22:17:15;99920.66;;;11.27
45034;BMP280;30771;47.988;-4.186;2023-02-18T22:19:41;99926.53;;;11.29
45034;BMP280;30771;47.988;-4.186;2023-02-18T22:22:06;99917.81;;;11.28
45034;BMP280;30771;47.988;-4.186;2023-02-18T22:24:31;99917.00;;;11.28
45034;BMP280;30771;47.988;-4.186;2023-02-18T22:26:57;99914.38;;;11.28
45034;BMP280;30771;47.988;-4.186;2023-02-18T22:29:22;99902.00;;;11.28
45034;BMP280;30771;47.988;-4.186;2023-02-18T22:31:48;99900.19;;;11.29
45034;BMP280;30771;47.988;-4.186;2023-02-18T22:34:14;99891.00;;;11.31
45034;BMP280;30771;47.988;-4.186;2023-02-18T22:36:39;99904.16;;;11.31
45034;BMP280;30771;47.988;-4.186;2023-02-18T22:39:04;99884.94;;;11.31
45034;BMP280;30771;47.988;-4.186;2023-02-18T22:41:31;99890.22;;;11.31
45034;BMP280;30771;47.988;-4.186;2023-02-18T22:43:58;99876.00;;;11.32
45034;BMP280;30771;47.988;-4.186;2023-02-18T22:46:23;99877.81;;;11.31
45034;BMP280;30771;47.988;-4.186;2023-02-18T22:48:49;99882.06;;;11.32
45034;BMP280;30771;47.988;-4.186;2023-02-18T22:51:19;99878.63;;;11.32